createdAt,value
2018-09-26T00:02:30.206Z,6.71
2018-09-26T00:04:58.948Z,6.60
2018-09-26T00:07:27.435Z,6.54
2018-09-26T00:09:58.044Z,6.67
2018-09-26T00:12:26.567Z,6.81
2018-09-26T00:14:55.187Z,6.95
2018-09-26T00:17:23.681Z,7.04
2018-09-26T00:19:52.433Z,7.04
2018-09-26T00:22:20.923Z,6.92
2018-09-26T00:24:50.298Z,6.89
2018-09-26T00:27:18.797Z,6.92
2018-09-26T00:29:47.291Z,6.91
2018-09-26T00:32:15.960Z,6.85
2018-09-26T00:34:44.443Z,6.78
2018-09-26T00:37:13.081Z,6.77
2018-09-26T00:39:42.001Z,6.95
2018-09-26T00:42:10.888Z,7.04
2018-09-26T00:44:39.388Z,7.03
2018-09-26T00:47:08.135Z,7.14
2018-09-26T00:49:36.623Z,7.11
2018-09-26T00:52:05.649Z,6.97
2018-09-26T00:54:34.218Z,6.93
2018-09-26T00:57:03.682Z,6.88
2018-09-26T00:59:32.444Z,6.86
2018-09-26T01:02:00.958Z,6.80
2018-09-26T01:04:29.442Z,6.73
2018-09-26T01:06:58.096Z,6.69
2018-09-26T01:09:26.877Z,6.71
2018-09-26T01:11:55.367Z,6.67
2018-09-26T01:14:24.457Z,6.59
2018-09-26T01:16:53.089Z,6.53
2018-09-26T01:19:21.606Z,6.51
2018-09-26T01:21:50.339Z,6.52
2018-09-26T01:24:18.832Z,6.57
2018-09-26T01:26:47.569Z,6.58
2018-09-26T01:29:16.087Z,6.50
2018-09-26T01:31:44.655Z,6.46
2018-09-26T01:34:13.145Z,6.48
2018-09-26T01:36:41.657Z,6.40
2018-09-26T01:39:10.851Z,6.39
2018-09-26T01:41:39.374Z,6.35
2018-09-26T01:44:07.966Z,6.45
2018-09-26T01:46:36.619Z,6.45
2018-09-26T01:49:08.549Z,6.42
2018-09-26T01:51:37.534Z,6.41
2018-09-26T01:54:06.057Z,6.42
2018-09-26T01:56:34.630Z,6.47
2018-09-26T01:59:04.498Z,6.41
2018-09-26T02:01:33.054Z,6.41
2018-09-26T02:04:03.114Z,6.39
2018-09-26T02:06:31.620Z,6.40
2018-09-26T02:09:00.128Z,6.35
2018-09-26T02:11:28.651Z,6.35
2018-09-26T02:13:57.114Z,6.42
2018-09-26T02:16:25.608Z,6.44
2018-09-26T02:18:54.260Z,6.38
2018-09-26T02:21:22.766Z,6.39
2018-09-26T02:23:51.267Z,6.60
2018-09-26T02:26:19.889Z,6.74
2018-09-26T02:28:48.403Z,6.84
2018-09-26T02:31:17.280Z,6.94
2018-09-26T02:33:45.773Z,7.00
2018-09-26T02:36:14.367Z,6.98
2018-09-26T02:38:43.399Z,7.05
2018-09-26T02:41:12.083Z,7.21
2018-09-26T02:43:40.841Z,7.21
2018-09-26T02:46:09.344Z,7.22
2018-09-26T02:48:43.410Z,7.24
2018-09-26T02:51:11.902Z,7.12
2018-09-26T02:53:40.392Z,6.99
2018-09-26T02:56:08.902Z,6.90
2018-09-26T02:58:37.436Z,6.82
2018-09-26T03:01:06.059Z,6.89
2018-09-26T03:03:34.554Z,6.90
2018-09-26T03:06:04.708Z,6.89
2018-09-26T03:08:33.618Z,6.95
2018-09-26T03:11:03.777Z,7.07
2018-09-26T03:13:32.296Z,7.18
2018-09-26T03:16:00.945Z,7.32
2018-09-26T03:18:29.440Z,7.28
2018-09-26T03:20:57.974Z,7.17
2018-09-26T03:23:26.882Z,7.05
2018-09-26T03:25:55.733Z,6.90
2018-09-26T03:28:24.319Z,6.84
2018-09-26T03:30:52.846Z,6.90
2018-09-26T03:33:21.344Z,6.93
2018-09-26T03:35:49.863Z,6.86
2018-09-26T03:38:18.374Z,6.65
2018-09-26T03:40:46.935Z,6.70
2018-09-26T03:43:15.466Z,6.83
2018-09-26T03:45:50.264Z,6.87
2018-09-26T03:48:18.744Z,6.91
2018-09-26T03:50:47.278Z,6.86
2018-09-26T03:53:15.938Z,7.05
2018-09-26T03:55:44.530Z,7.10
2018-09-26T03:58:13.016Z,7.24
2018-09-26T04:00:41.505Z,7.33
2018-09-26T04:03:10.030Z,7.21
2018-09-26T04:05:38.542Z,7.14
2018-09-26T04:08:07.184Z,7.34
2018-09-26T04:10:35.970Z,7.43
2018-09-26T04:13:05.521Z,7.45
2018-09-26T04:15:38.221Z,7.41
2018-09-26T04:18:07.195Z,7.43
2018-09-26T04:20:38.006Z,7.45
2018-09-26T04:23:06.557Z,7.51
2018-09-26T04:25:35.097Z,7.64
2018-09-26T04:28:05.129Z,7.56
2018-09-26T04:30:35.226Z,7.53
2018-09-26T04:33:05.163Z,7.60
2018-09-26T04:35:33.682Z,7.54
2018-09-26T04:38:04.688Z,7.57
2018-09-26T04:40:33.181Z,7.62
2018-09-26T04:43:02.805Z,7.69
2018-09-26T04:45:32.214Z,7.71
2018-09-26T04:48:00.772Z,7.59
2018-09-26T04:50:29.283Z,7.55
2018-09-26T04:52:58.076Z,7.50
2018-09-26T04:55:26.589Z,7.62
2018-09-26T04:57:55.206Z,7.66
2018-09-26T05:00:23.965Z,7.74
2018-09-26T05:02:52.451Z,7.67
2018-09-26T05:05:20.925Z,7.65
2018-09-26T05:07:49.537Z,7.79
2018-09-26T05:10:18.088Z,7.83
2018-09-26T05:12:47.013Z,7.74
2018-09-26T05:15:15.708Z,7.67
2018-09-26T05:17:44.222Z,7.55
2018-09-26T05:20:13.053Z,7.78
2018-09-26T05:22:41.525Z,7.75
2018-09-26T05:25:10.067Z,7.64
2018-09-26T05:27:38.583Z,7.68
2018-09-26T05:30:07.109Z,7.71
2018-09-26T05:32:35.710Z,7.83
2018-09-26T05:35:06.161Z,7.88
2018-09-26T05:37:34.891Z,7.88
2018-09-26T05:40:05.481Z,7.86
2018-09-26T05:42:34.043Z,7.83
2018-09-26T05:45:03.781Z,7.72
2018-09-26T05:47:32.296Z,7.78
2018-09-26T05:50:00.761Z,7.81
2018-09-26T05:52:29.262Z,8.04
2018-09-26T05:54:57.739Z,8.11
2018-09-26T05:57:26.388Z,8.13
2018-09-26T05:59:55.178Z,8.20
2018-09-26T06:02:23.853Z,8.17
2018-09-26T06:04:52.754Z,8.28
2018-09-26T06:07:21.239Z,8.37
2018-09-26T06:09:49.971Z,8.38
2018-09-26T06:12:19.138Z,8.38
2018-09-26T06:14:47.664Z,8.35
2018-09-26T06:17:16.239Z,8.27
2018-09-26T06:19:44.762Z,8.48
2018-09-26T06:22:13.253Z,8.52
2018-09-26T06:24:41.853Z,8.44
2018-09-26T06:27:10.346Z,8.63
2018-09-26T06:29:39.360Z,8.70
2018-09-26T06:32:07.901Z,8.70
2018-09-26T06:34:36.406Z,8.78
2018-09-26T06:37:05.033Z,8.84
2018-09-26T06:39:35.417Z,8.94
2018-09-26T06:42:05.445Z,8.97
2018-09-26T06:44:33.940Z,9.01
2018-09-26T06:47:03.694Z,9.06
2018-09-26T06:49:32.311Z,9.16
2018-09-26T06:52:00.831Z,9.18
2018-09-26T06:54:29.408Z,9.23
2018-09-26T06:56:57.957Z,9.32
2018-09-26T06:59:26.487Z,9.33
2018-09-26T07:01:55.006Z,9.31
2018-09-26T07:04:23.833Z,9.52
2018-09-26T07:06:52.856Z,9.54
2018-09-26T07:09:21.363Z,9.47
2018-09-26T07:11:49.837Z,9.49
2018-09-26T07:14:18.352Z,9.61
2018-09-26T07:16:46.840Z,9.72
2018-09-26T07:19:15.326Z,9.85
2018-09-26T07:21:43.858Z,9.93
2018-09-26T07:24:12.357Z,10.10
2018-09-26T07:26:40.866Z,10.18
2018-09-26T07:29:09.692Z,10.25
2018-09-26T07:31:38.243Z,10.31
2018-09-26T07:34:07.177Z,10.49
2018-09-26T07:36:35.685Z,10.58
2018-09-26T07:39:09.977Z,10.61
2018-09-26T07:41:38.845Z,10.53
2018-09-26T07:44:07.508Z,10.69
2018-09-26T07:46:36.319Z,10.80
2018-09-26T07:49:05.499Z,10.78
2018-09-26T07:51:34.007Z,11.04
2018-09-26T07:54:04.392Z,10.94
2018-09-26T07:56:32.946Z,11.39
2018-09-26T07:59:02.748Z,11.20
2018-09-26T08:01:31.253Z,11.40
2018-09-26T08:03:59.821Z,11.63
2018-09-26T08:06:28.344Z,11.80
2018-09-26T08:08:56.844Z,11.85
2018-09-26T08:11:26.370Z,11.85
2018-09-26T08:13:54.855Z,11.92
2018-09-26T08:16:23.349Z,11.92
2018-09-26T08:18:51.887Z,12.00
2018-09-26T08:21:20.476Z,12.11
2018-09-26T08:23:49.084Z,12.17
2018-09-26T08:26:17.873Z,12.17
2018-09-26T08:28:46.913Z,12.33
2018-09-26T08:31:15.661Z,12.61
2018-09-26T08:33:44.164Z,12.59
2018-09-26T08:36:12.814Z,12.42
2018-09-26T08:38:41.430Z,12.71
2018-09-26T08:41:09.952Z,12.62
2018-09-26T08:43:38.485Z,12.92
2018-09-26T08:46:06.988Z,12.91
2018-09-26T08:48:35.467Z,12.97
2018-09-26T08:51:05.093Z,12.87
2018-09-26T08:53:33.598Z,13.03
2018-09-26T08:56:04.660Z,13.09
2018-09-26T08:58:33.188Z,13.19
2018-09-26T09:01:02.738Z,13.18
2018-09-26T09:03:31.252Z,13.32
2018-09-26T09:05:59.753Z,13.41
2018-09-26T09:08:28.345Z,13.27
2018-09-26T09:10:56.910Z,13.43
2018-09-26T09:13:25.443Z,13.48
2018-09-26T09:15:53.980Z,13.43
2018-09-26T09:18:22.528Z,13.52
2018-09-26T09:20:51.105Z,13.41
2018-09-26T09:23:19.608Z,13.44
2018-09-26T09:25:48.141Z,13.72
2018-09-26T09:28:16.797Z,13.60
2018-09-26T09:30:45.433Z,13.70
2018-09-26T09:33:13.933Z,13.82
2018-09-26T09:35:42.695Z,13.85
2018-09-26T09:38:11.208Z,14.16
2018-09-26T09:40:39.743Z,14.33
2018-09-26T09:43:09.150Z,14.27
2018-09-26T09:45:37.618Z,14.48
2018-09-26T09:48:06.093Z,14.26
2018-09-26T09:50:35.278Z,13.83
2018-09-26T09:53:06.160Z,14.13
2018-09-26T09:55:34.704Z,14.29
2018-09-26T09:58:05.714Z,14.28
2018-09-26T10:00:39.891Z,13.98
2018-09-26T10:03:08.617Z,14.11
2018-09-26T10:05:37.079Z,14.31
2018-09-26T10:08:06.007Z,14.13
2018-09-26T10:10:34.476Z,14.43
2018-09-26T10:13:04.862Z,14.72
2018-09-26T10:15:33.393Z,14.35
2018-09-26T10:18:03.863Z,14.42
2018-09-26T10:20:32.595Z,14.52
2018-09-26T10:23:02.352Z,14.81
2018-09-26T10:25:30.876Z,15.01
2018-09-26T10:27:59.413Z,15.23
2018-09-26T10:30:27.949Z,15.14
2018-09-26T10:32:56.561Z,15.03
2018-09-26T10:35:25.119Z,14.65
2018-09-26T10:37:53.757Z,14.97
2018-09-26T10:40:23.815Z,15.03
2018-09-26T10:42:52.349Z,15.05
2018-09-26T10:45:20.925Z,15.26
2018-09-26T10:47:49.708Z,15.12
2018-09-26T10:50:18.234Z,15.43
2018-09-26T10:52:46.713Z,15.19
2018-09-26T10:55:15.499Z,15.31
2018-09-26T10:57:44.007Z,15.30
2018-09-26T11:00:12.524Z,15.32
2018-09-26T11:02:41.736Z,15.62
2018-09-26T11:05:10.242Z,15.45
2018-09-26T11:07:38.965Z,15.45
2018-09-26T11:10:07.551Z,15.65
2018-09-26T11:12:36.359Z,15.80
2018-09-26T11:15:06.359Z,15.53
2018-09-26T11:17:35.276Z,15.86
2018-09-26T11:20:05.808Z,16.09
2018-09-26T11:22:34.410Z,16.21
2018-09-26T11:25:04.619Z,16.44
2018-09-26T11:27:33.262Z,16.96
2018-09-26T11:30:05.979Z,17.14
2018-09-26T11:32:34.525Z,17.03
2018-09-26T11:35:04.914Z,16.99
2018-09-26T11:37:33.430Z,17.06
2018-09-26T11:40:19.135Z,17.12
2018-09-26T11:42:47.660Z,17.37
2018-09-26T11:45:16.569Z,17.20
2018-09-26T11:47:45.448Z,16.94
2018-09-26T11:50:13.994Z,17.25
2018-09-26T11:52:48.427Z,17.07
2018-09-26T11:55:17.328Z,17.41
2018-09-26T11:57:45.903Z,17.32
2018-09-26T12:00:14.532Z,17.33
2018-09-26T12:02:43.214Z,17.44
2018-09-26T12:05:11.654Z,16.79
2018-09-26T12:07:40.152Z,17.26
2018-09-26T12:10:08.750Z,17.63
2018-09-26T12:12:37.434Z,18.20
2018-09-26T12:15:05.962Z,17.57
2018-09-26T12:17:36.037Z,18.40
2018-09-26T12:20:08.664Z,19.59
2018-09-26T12:22:38.019Z,20.07
2018-09-26T12:25:06.811Z,19.84
2018-09-26T12:27:35.480Z,18.69
2018-09-26T12:30:06.632Z,19.81
2018-09-26T12:32:35.138Z,19.87
2018-09-26T12:35:05.511Z,19.98
2018-09-26T12:37:34.000Z,19.64
2018-09-26T12:40:10.127Z,18.71
2018-09-26T12:42:39.130Z,20.78
2018-09-26T12:45:07.648Z,20.54
2018-09-26T12:47:36.187Z,21.59
2018-09-26T12:50:05.820Z,20.62
2018-09-26T12:52:35.139Z,21.15
2018-09-26T12:55:05.595Z,22.01
2018-09-26T12:57:34.087Z,22.40
2018-09-26T13:00:05.750Z,21.86
2018-09-26T13:02:34.274Z,20.55
2018-09-26T13:05:05.249Z,21.04
2018-09-26T13:07:33.746Z,21.70
2018-09-26T13:10:03.805Z,20.72
2018-09-26T13:12:32.387Z,21.33
2018-09-26T13:15:00.905Z,21.53
2018-09-26T13:17:29.657Z,20.67
2018-09-26T13:19:58.734Z,21.75
2018-09-26T13:22:27.295Z,20.77
2018-09-26T13:24:55.815Z,21.20
2018-09-26T13:27:24.342Z,21.62
2018-09-26T13:29:52.924Z,21.95
2018-09-26T13:32:21.520Z,20.39
2018-09-26T13:34:49.970Z,21.61
2018-09-26T13:37:18.504Z,21.72
2018-09-26T13:39:46.989Z,22.34
2018-09-26T13:42:15.556Z,22.55
2018-09-26T13:44:44.008Z,20.36
2018-09-26T13:47:12.575Z,20.96
2018-09-26T13:49:41.060Z,20.50
2018-09-26T13:52:09.664Z,22.46
2018-09-26T13:54:38.170Z,21.54
2018-09-26T13:57:06.733Z,20.68
2018-09-26T13:59:35.239Z,21.90
2018-09-26T14:02:05.377Z,20.69
2018-09-26T14:04:33.866Z,22.49
2018-09-26T14:07:04.085Z,21.46
2018-09-26T14:09:32.596Z,21.42
2018-09-26T14:12:02.781Z,21.97
2018-09-26T14:14:31.455Z,23.26
2018-09-26T14:17:00.148Z,21.16
2018-09-26T14:19:29.242Z,21.65
2018-09-26T14:21:58.046Z,21.67
2018-09-26T14:24:26.540Z,21.69
2018-09-26T14:26:55.062Z,20.97
2018-09-26T14:29:23.581Z,20.73
2018-09-26T14:31:52.291Z,22.02
2018-09-26T14:34:21.190Z,21.77
2018-09-26T14:36:49.725Z,21.26
2018-09-26T14:39:18.245Z,22.29
2018-09-26T14:41:46.845Z,23.33
2018-09-26T14:44:15.516Z,22.70
2018-09-26T14:46:43.921Z,21.16
2018-09-26T14:49:12.828Z,21.69
2018-09-26T14:51:41.357Z,20.10
2018-09-26T14:54:10.256Z,22.03
2018-09-26T14:56:38.961Z,22.16
2018-09-26T14:59:07.539Z,23.26
2018-09-26T15:01:36.107Z,22.56
2018-09-26T15:04:05.344Z,23.20
2018-09-26T15:06:33.867Z,22.03
2018-09-26T15:09:04.658Z,21.63
2018-09-26T15:11:33.214Z,21.79
2018-09-26T15:14:02.823Z,22.21
2018-09-26T15:16:31.408Z,21.73
2018-09-26T15:19:00.040Z,21.38
2018-09-26T15:21:28.623Z,21.26
2018-09-26T15:23:57.113Z,21.05
2018-09-26T15:26:25.671Z,21.34
2018-09-26T15:28:54.216Z,20.64
2018-09-26T15:31:22.753Z,20.44
2018-09-26T15:33:51.623Z,20.18
2018-09-26T15:36:20.234Z,19.70
2018-09-26T15:38:48.695Z,19.15
2018-09-26T15:41:17.453Z,19.29
2018-09-26T15:43:46.074Z,18.80
2018-09-26T15:46:14.620Z,18.85
2018-09-26T15:48:43.171Z,19.12
2018-09-26T15:51:11.815Z,19.15
2018-09-26T15:53:40.367Z,18.95
2018-09-26T15:56:09.106Z,19.09
2018-09-26T15:58:37.814Z,18.79
2018-09-26T16:01:06.894Z,18.82
2018-09-26T16:03:35.466Z,18.78
2018-09-26T16:06:04.233Z,19.28
2018-09-26T16:08:32.758Z,19.55
2018-09-26T16:11:02.783Z,19.55
2018-09-26T16:13:31.311Z,20.38
2018-09-26T16:15:59.812Z,19.39
2018-09-26T16:18:28.727Z,19.39
2018-09-26T16:20:57.243Z,19.07
2018-09-26T16:23:25.757Z,19.15
2018-09-26T16:25:54.405Z,18.77
2018-09-26T16:28:23.157Z,18.70
2018-09-26T16:30:51.584Z,18.74
2018-09-26T16:33:20.114Z,18.57
2018-09-26T16:35:48.656Z,18.49
2018-09-26T16:38:17.247Z,18.28
2018-09-26T16:40:45.765Z,18.20
2018-09-26T16:43:14.313Z,18.12
2018-09-26T16:45:42.824Z,18.21
2018-09-26T16:48:11.886Z,18.01
2018-09-26T16:50:40.929Z,18.07
2018-09-26T16:53:09.707Z,18.06
2018-09-26T16:55:38.349Z,17.85
2018-09-26T16:58:07.047Z,17.71
2018-09-26T17:00:36.364Z,17.80
2018-09-26T17:03:08.046Z,17.64
2018-09-26T17:05:36.798Z,17.56
2018-09-26T17:08:05.798Z,17.61
2018-09-26T17:10:34.288Z,17.71
2018-09-26T17:13:05.241Z,17.40
2018-09-26T17:15:33.909Z,17.34
2018-09-26T17:18:04.138Z,17.38
2018-09-26T17:20:32.690Z,17.35
2018-09-26T17:23:02.710Z,17.50
2018-09-26T17:25:31.259Z,17.51
2018-09-26T17:27:59.821Z,17.36
2018-09-26T17:30:28.367Z,17.21
2018-09-26T17:32:57.155Z,17.31
2018-09-26T17:35:25.763Z,17.38
2018-09-26T17:37:54.543Z,17.20
2018-09-26T17:40:23.137Z,17.28
2018-09-26T17:42:51.652Z,17.03
2018-09-26T17:45:20.255Z,17.28
2018-09-26T17:47:48.772Z,17.20
2018-09-26T17:50:17.372Z,17.25
2018-09-26T17:52:45.873Z,17.15
2018-09-26T17:55:14.442Z,17.24
2018-09-26T17:57:42.951Z,17.02
2018-09-26T18:00:11.918Z,16.95
2018-09-26T18:02:40.623Z,16.59
2018-09-26T18:05:09.204Z,16.52
2018-09-26T18:07:37.770Z,16.67
2018-09-26T18:10:10.831Z,16.50
2018-09-26T18:12:39.593Z,16.45
2018-09-26T18:15:08.234Z,16.49
2018-09-26T18:17:36.906Z,16.47
2018-09-26T18:20:05.637Z,16.49
2018-09-26T18:22:34.661Z,16.44
2018-09-26T18:25:07.765Z,16.36
2018-09-26T18:27:36.523Z,16.32
2018-09-26T18:30:06.187Z,16.42
2018-09-26T18:32:35.117Z,16.58
2018-09-26T18:35:06.720Z,16.39
2018-09-26T18:37:35.224Z,16.44
2018-09-26T18:40:05.720Z,16.44
2018-09-26T18:42:34.298Z,16.34
2018-09-26T18:45:05.385Z,16.46
2018-09-26T18:47:33.906Z,16.33
2018-09-26T18:50:04.006Z,16.54
2018-09-26T18:52:32.747Z,16.58
2018-09-26T18:55:03.417Z,16.50
2018-09-26T18:57:32.098Z,16.36
2018-09-26T19:00:00.635Z,16.40
2018-09-26T19:02:29.318Z,16.30
2018-09-26T19:04:58.351Z,16.32
2018-09-26T19:07:26.815Z,16.40
2018-09-26T19:09:55.510Z,16.36
2018-09-26T19:12:24.331Z,16.37
2018-09-26T19:14:52.863Z,16.44
2018-09-26T19:17:21.435Z,16.23
2018-09-26T19:19:50.015Z,16.25
2018-09-26T19:22:18.558Z,16.08
2018-09-26T19:24:47.279Z,15.85
2018-09-26T19:27:15.919Z,15.54
2018-09-26T19:29:45.264Z,15.52
2018-09-26T19:32:14.245Z,15.65
2018-09-26T19:34:42.827Z,15.55
2018-09-26T19:37:11.447Z,15.67
2018-09-26T19:39:40.036Z,15.58
2018-09-26T19:42:08.601Z,15.54
2018-09-26T19:44:37.150Z,15.69
2018-09-26T19:47:05.767Z,15.68
2018-09-26T19:49:34.317Z,15.74
2018-09-26T19:52:05.341Z,15.77
2018-09-26T19:54:33.857Z,15.72
2018-09-26T19:57:03.839Z,15.56
2018-09-26T19:59:32.341Z,15.49
2018-09-26T20:02:00.880Z,15.37
2018-09-26T20:04:29.614Z,15.36
2018-09-26T20:06:58.191Z,15.14
2018-09-26T20:09:26.692Z,15.23
2018-09-26T20:11:55.785Z,15.18
2018-09-26T20:14:24.294Z,15.02
2018-09-26T20:16:53.239Z,14.96
2018-09-26T20:19:22.175Z,15.15
2018-09-26T20:21:50.739Z,14.99
2018-09-26T20:24:20.467Z,14.91
2018-09-26T20:26:49.136Z,14.84
2018-09-26T20:29:18.024Z,14.84
2018-09-26T20:31:46.614Z,14.77
2018-09-26T20:34:15.230Z,14.75
2018-09-26T20:36:43.725Z,14.72
2018-09-26T20:39:12.900Z,14.57
2018-09-26T20:41:41.435Z,14.48
2018-09-26T20:44:10.133Z,14.48
2018-09-26T20:46:38.651Z,14.52
2018-09-26T20:49:07.225Z,14.55
2018-09-26T20:51:35.768Z,14.62
2018-09-26T20:54:06.018Z,14.45
2018-09-26T20:56:34.769Z,14.49
2018-09-26T20:59:05.541Z,14.56
2018-09-26T21:01:34.199Z,14.33
2018-09-26T21:04:05.117Z,14.28
2018-09-26T21:06:33.618Z,14.42
2018-09-26T21:09:05.140Z,14.26
2018-09-26T21:11:33.710Z,14.36
2018-09-26T21:14:03.351Z,14.31
2018-09-26T21:16:32.176Z,14.27
2018-09-26T21:19:00.673Z,14.08
2018-09-26T21:21:29.244Z,13.98
2018-09-26T21:23:57.791Z,14.16
2018-09-26T21:26:26.714Z,14.21
2018-09-26T21:28:55.251Z,14.36
2018-09-26T21:31:24.203Z,14.61
2018-09-26T21:33:52.687Z,14.55
2018-09-26T21:36:21.256Z,14.48
2018-09-26T21:38:49.830Z,14.61
2018-09-26T21:41:18.391Z,14.72
2018-09-26T21:43:47.347Z,14.72
2018-09-26T21:46:15.864Z,14.61
2018-09-26T21:48:44.398Z,14.59
2018-09-26T21:51:12.894Z,14.85
2018-09-26T21:53:41.449Z,14.83
2018-09-26T21:56:09.958Z,14.70
2018-09-26T21:58:38.481Z,14.59
2018-09-26T22:01:12.261Z,14.74
2018-09-26T22:03:40.813Z,14.79
2018-09-26T22:06:09.692Z,14.69
2018-09-26T22:08:38.797Z,14.81
2018-09-26T22:11:07.334Z,14.75
2018-09-26T22:13:36.101Z,14.83
2018-09-26T22:16:05.648Z,14.86
2018-09-26T22:18:34.169Z,14.73
2018-09-26T22:21:04.949Z,14.80
2018-09-26T22:23:33.551Z,14.82
2018-09-26T22:26:03.694Z,14.72
2018-09-26T22:28:32.192Z,14.72
2018-09-26T22:31:03.969Z,14.52
2018-09-26T22:33:32.438Z,14.61
2018-09-26T22:36:00.979Z,14.60
2018-09-26T22:38:29.452Z,14.69
2018-09-26T22:40:57.973Z,14.72
2018-09-26T22:43:26.524Z,14.69
2018-09-26T22:45:55.073Z,14.73
2018-09-26T22:48:23.610Z,14.53
2018-09-26T22:50:52.123Z,14.61
2018-09-26T22:53:20.639Z,14.51
2018-09-26T22:55:49.379Z,14.44
2018-09-26T22:58:17.863Z,14.64
2018-09-26T23:00:46.401Z,14.71
2018-09-26T23:03:14.896Z,14.48
2018-09-26T23:05:43.452Z,14.56
2018-09-26T23:08:11.984Z,14.56
2018-09-26T23:10:40.500Z,14.39
2018-09-26T23:13:09.943Z,14.55
2018-09-26T23:15:38.484Z,14.48
2018-09-26T23:18:07.068Z,14.38
2018-09-26T23:20:35.570Z,14.17
2018-09-26T23:23:05.943Z,14.07
2018-09-26T23:25:34.713Z,14.22
2018-09-26T23:28:04.792Z,14.13
2018-09-26T23:30:33.325Z,14.00
2018-09-26T23:33:06.278Z,13.89
2018-09-26T23:35:34.906Z,13.87
2018-09-26T23:38:05.662Z,13.77
2018-09-26T23:40:34.193Z,13.74
2018-09-26T23:43:04.310Z,13.69
2018-09-26T23:45:32.829Z,13.76
2018-09-26T23:48:03.624Z,13.69
2018-09-26T23:50:32.256Z,13.60
2018-09-26T23:53:00.757Z,13.57
2018-09-26T23:55:29.370Z,13.75
2018-09-26T23:57:57.922Z,13.66
